sensor_id;sensor_type;location;lat;lon;timestamp;P1;durP1;ratioP1;P2;durP2;ratioP2
31920;SDS011;66485;52.128;4.436;2023-04-16T00:02:21;3.33;;;0.60;;
31920;SDS011;66485;52.128;4.436;2023-04-16T00:04:46;1.70;;;0.73;;
31920;SDS011;66485;52.128;4.436;2023-04-16T00:07:12;1.40;;;0.63;;
31920;SDS011;66485;52.128;4.436;2023-04-16T00:09:37;4.50;;;0.70;;
31920;SDS011;66485;52.128;4.436;2023-04-16T00:12:03;1.45;;;0.52;;
31920;SDS011;66485;52.128;4.436;2023-04-16T00:14:28;1.38;;;0.57;;
31920;SDS011;66485;52.128;4.436;2023-04-16T00:16:54;1.27;;;0.50;;
31920;SDS011;66485;52.128;4.436;2023-04-16T00:19:19;1.48;;;0.68;;
31920;SDS011;66485;52.128;4.436;2023-04-16T00:21:44;1.40;;;0.60;;
31920;SDS011;66485;52.128;4.436;2023-04-16T00:24:10;1.48;;;0.80;;
31920;SDS011;66485;52.128;4.436;2023-04-16T00:26:35;0.95;;;0.55;;
31920;SDS011;66485;52.128;4.436;2023-04-16T00:29:00;2.72;;;0.60;;
31920;SDS011;66485;52.128;4.436;2023-04-16T00:31:29;1.55;;;0.60;;
31920;SDS011;66485;52.128;4.436;2023-04-16T00:33:56;1.60;;;0.50;;
31920;SDS011;66485;52.128;4.436;2023-04-16T00:36:22;0.43;;;0.40;;
31920;SDS011;66485;52.128;4.436;2023-04-16T00:38:49;1.95;;;0.60;;
31920;SDS011;66485;52.128;4.436;2023-04-16T00:41:15;3.83;;;0.70;;
31920;SDS011;66485;52.128;4.436;2023-04-16T00:43:40;1.95;;;0.63;;
31920;SDS011;66485;52.128;4.436;2023-04-16T00:46:06;2.55;;;0.77;;
31920;SDS011;66485;52.128;4.436;2023-04-16T00:48:32;1.13;;;0.60;;
31920;SDS011;66485;52.128;4.436;2023-04-16T00:50:58;1.42;;;0.65;;
31920;SDS011;66485;52.128;4.436;2023-04-16T00:53:25;1.67;;;0.60;;
31920;SDS011;66485;52.128;4.436;2023-04-16T00:55:51;1.25;;;0.60;;
31920;SDS011;66485;52.128;4.436;2023-04-16T00:58:18;2.92;;;0.75;;
31920;SDS011;66485;52.128;4.436;2023-04-16T01:00:43;1.30;;;0.47;;
31920;SDS011;66485;52.128;4.436;2023-04-16T01:03:09;2.08;;;0.70;;
31920;SDS011;66485;52.128;4.436;2023-04-16T01:05:35;1.50;;;0.60;;
31920;SDS011;66485;52.128;4.436;2023-04-16T01:08:01;2.55;;;0.85;;
31920;SDS011;66485;52.128;4.436;2023-04-16T01:10:26;2.08;;;0.60;;
31920;SDS011;66485;52.128;4.436;2023-04-16T01:12:51;1.08;;;0.57;;
31920;SDS011;66485;52.128;4.436;2023-04-16T01:15:17;1.48;;;0.52;;
31920;SDS011;66485;52.128;4.436;2023-04-16T01:17:43;1.08;;;0.45;;
31920;SDS011;66485;52.128;4.436;2023-04-16T01:20:10;3.38;;;0.70;;
31920;SDS011;66485;52.128;4.436;2023-04-16T01:22:35;1.45;;;0.65;;
31920;SDS011;66485;52.128;4.436;2023-04-16T01:25:01;3.30;;;0.55;;
31920;SDS011;66485;52.128;4.436;2023-04-16T01:27:26;1.92;;;0.60;;
31920;SDS011;66485;52.128;4.436;2023-04-16T01:29:51;2.28;;;0.70;;
31920;SDS011;66485;52.128;4.436;2023-04-16T01:32:17;2.63;;;0.60;;
31920;SDS011;66485;52.128;4.436;2023-04-16T01:34:42;1.48;;;0.60;;
31920;SDS011;66485;52.128;4.436;2023-04-16T01:37:07;1.88;;;0.50;;
31920;SDS011;66485;52.128;4.436;2023-04-16T01:39:33;3.25;;;0.63;;
31920;SDS011;66485;52.128;4.436;2023-04-16T01:41:58;1.55;;;0.65;;
31920;SDS011;66485;52.128;4.436;2023-04-16T01:44:23;2.17;;;0.75;;
31920;SDS011;66485;52.128;4.436;2023-04-16T01:46:49;1.15;;;0.43;;
31920;SDS011;66485;52.128;4.436;2023-04-16T01:49:15;1.40;;;0.52;;
31920;SDS011;66485;52.128;4.436;2023-04-16T01:51:40;2.47;;;0.77;;
31920;SDS011;66485;52.128;4.436;2023-04-16T01:54:06;1.20;;;0.52;;
31920;SDS011;66485;52.128;4.436;2023-04-16T01:56:31;2.50;;;0.90;;
31920;SDS011;66485;52.128;4.436;2023-04-16T01:58:57;0.47;;;0.40;;
31920;SDS011;66485;52.128;4.436;2023-04-16T02:01:22;4.95;;;0.88;;
31920;SDS011;66485;52.128;4.436;2023-04-16T02:03:48;1.92;;;0.60;;
31920;SDS011;66485;52.128;4.436;2023-04-16T02:06:13;2.13;;;0.75;;
31920;SDS011;66485;52.128;4.436;2023-04-16T02:08:39;1.45;;;0.60;;
31920;SDS011;66485;52.128;4.436;2023-04-16T02:11:05;1.63;;;0.70;;
31920;SDS011;66485;52.128;4.436;2023-04-16T02:13:30;1.55;;;0.68;;
31920;SDS011;66485;52.128;4.436;2023-04-16T02:15:56;1.90;;;0.60;;
31920;SDS011;66485;52.128;4.436;2023-04-16T02:18:21;1.80;;;0.70;;
31920;SDS011;66485;52.128;4.436;2023-04-16T02:20:46;2.38;;;0.70;;
31920;SDS011;66485;52.128;4.436;2023-04-16T02:23:13;1.42;;;0.70;;
31920;SDS011;66485;52.128;4.436;2023-04-16T02:25:39;2.00;;;0.70;;
31920;SDS011;66485;52.128;4.436;2023-04-16T02:28:09;2.92;;;0.60;;
31920;SDS011;66485;52.128;4.436;2023-04-16T02:30:36;0.75;;;0.50;;
31920;SDS011;66485;52.128;4.436;2023-04-16T02:33:02;1.25;;;0.50;;
31920;SDS011;66485;52.128;4.436;2023-04-16T02:35:29;3.08;;;0.70;;
31920;SDS011;66485;52.128;4.436;2023-04-16T02:37:56;2.53;;;0.70;;
31920;SDS011;66485;52.128;4.436;2023-04-16T02:40:22;2.17;;;0.63;;
31920;SDS011;66485;52.128;4.436;2023-04-16T02:42:47;3.05;;;0.77;;
31920;SDS011;66485;52.128;4.436;2023-04-16T02:45:13;1.10;;;0.50;;
31920;SDS011;66485;52.128;4.436;2023-04-16T02:47:38;1.00;;;0.55;;
31920;SDS011;66485;52.128;4.436;2023-04-16T02:50:03;2.08;;;0.70;;
31920;SDS011;66485;52.128;4.436;2023-04-16T02:52:30;1.77;;;0.65;;
31920;SDS011;66485;52.128;4.436;2023-04-16T02:54:56;0.70;;;0.50;;
31920;SDS011;66485;52.128;4.436;2023-04-16T02:57:22;1.27;;;0.50;;
31920;SDS011;66485;52.128;4.436;2023-04-16T02:59:47;1.98;;;0.70;;
31920;SDS011;66485;52.128;4.436;2023-04-16T03:02:12;2.17;;;0.70;;
31920;SDS011;66485;52.128;4.436;2023-04-16T03:04:38;2.90;;;0.70;;
31920;SDS011;66485;52.128;4.436;2023-04-16T03:07:03;1.85;;;0.70;;
31920;SDS011;66485;52.128;4.436;2023-04-16T03:09:28;1.65;;;0.70;;
31920;SDS011;66485;52.128;4.436;2023-04-16T03:11:53;2.17;;;0.73;;
31920;SDS011;66485;52.128;4.436;2023-04-16T03:14:19;1.42;;;0.75;;
31920;SDS011;66485;52.128;4.436;2023-04-16T03:16:44;1.10;;;0.60;;
31920;SDS011;66485;52.128;4.436;2023-04-16T03:19:10;2.38;;;0.90;;
31920;SDS011;66485;52.128;4.436;2023-04-16T03:21:35;1.20;;;0.68;;
31920;SDS011;66485;52.128;4.436;2023-04-16T03:24:00;2.40;;;0.77;;
31920;SDS011;66485;52.128;4.436;2023-04-16T03:26:26;3.47;;;0.80;;
31920;SDS011;66485;52.128;4.436;2023-04-16T03:28:51;2.03;;;0.75;;
31920;SDS011;66485;52.128;4.436;2023-04-16T03:31:16;1.80;;;0.73;;
31920;SDS011;66485;52.128;4.436;2023-04-16T03:33:42;1.08;;;0.68;;
31920;SDS011;66485;52.128;4.436;2023-04-16T03:36:07;2.67;;;0.65;;
31920;SDS011;66485;52.128;4.436;2023-04-16T03:38:32;3.78;;;0.70;;
31920;SDS011;66485;52.128;4.436;2023-04-16T03:40:58;2.38;;;0.60;;
31920;SDS011;66485;52.128;4.436;2023-04-16T03:43:23;1.63;;;0.60;;
31920;SDS011;66485;52.128;4.436;2023-04-16T03:45:48;1.48;;;0.70;;
31920;SDS011;66485;52.128;4.436;2023-04-16T03:48:14;2.42;;;0.93;;
31920;SDS011;66485;52.128;4.436;2023-04-16T03:50:43;1.77;;;0.70;;
31920;SDS011;66485;52.128;4.436;2023-04-16T03:53:09;1.85;;;0.50;;
31920;SDS011;66485;52.128;4.436;2023-04-16T03:55:35;1.73;;;0.93;;
31920;SDS011;66485;52.128;4.436;2023-04-16T03:58:00;2.80;;;0.85;;
31920;SDS011;66485;52.128;4.436;2023-04-16T04:00:27;1.55;;;0.73;;
31920;SDS011;66485;52.128;4.436;2023-04-16T04:02:53;1.85;;;0.60;;
31920;SDS011;66485;52.128;4.436;2023-04-16T04:05:19;2.65;;;0.90;;
31920;SDS011;66485;52.128;4.436;2023-04-16T04:07:45;2.17;;;0.82;;
31920;SDS011;66485;52.128;4.436;2023-04-16T04:10:10;1.38;;;0.90;;
31920;SDS011;66485;52.128;4.436;2023-04-16T04:12:35;2.95;;;0.80;;
31920;SDS011;66485;52.128;4.436;2023-04-16T04:15:01;2.22;;;0.68;;
31920;SDS011;66485;52.128;4.436;2023-04-16T04:17:26;3.13;;;0.80;;
31920;SDS011;66485;52.128;4.436;2023-04-16T04:19:51;1.67;;;0.82;;
31920;SDS011;66485;52.128;4.436;2023-04-16T04:22:17;2.38;;;0.88;;
31920;SDS011;66485;52.128;4.436;2023-04-16T04:24:43;3.25;;;0.75;;
31920;SDS011;66485;52.128;4.436;2023-04-16T04:27:08;3.35;;;0.88;;
31920;SDS011;66485;52.128;4.436;2023-04-16T04:29:34;3.10;;;0.75;;
31920;SDS011;66485;52.128;4.436;2023-04-16T04:31:59;3.92;;;0.77;;
31920;SDS011;66485;52.128;4.436;2023-04-16T04:34:24;1.70;;;0.65;;
31920;SDS011;66485;52.128;4.436;2023-04-16T04:36:50;3.40;;;1.10;;
31920;SDS011;66485;52.128;4.436;2023-04-16T04:39:15;1.95;;;0.70;;
31920;SDS011;66485;52.128;4.436;2023-04-16T04:41:40;2.55;;;0.93;;
31920;SDS011;66485;52.128;4.436;2023-04-16T04:44:06;4.47;;;0.95;;
31920;SDS011;66485;52.128;4.436;2023-04-16T04:46:31;2.22;;;0.70;;
31920;SDS011;66485;52.128;4.436;2023-04-16T04:48:56;1.33;;;0.65;;
31920;SDS011;66485;52.128;4.436;2023-04-16T04:51:22;1.58;;;0.82;;
31920;SDS011;66485;52.128;4.436;2023-04-16T04:53:47;2.03;;;0.70;;
31920;SDS011;66485;52.128;4.436;2023-04-16T04:56:12;4.22;;;0.93;;
31920;SDS011;66485;52.128;4.436;2023-04-16T04:58:38;1.83;;;1.10;;
31920;SDS011;66485;52.128;4.436;2023-04-16T05:01:03;1.77;;;0.98;;
31920;SDS011;66485;52.128;4.436;2023-04-16T05:03:28;2.00;;;0.70;;
31920;SDS011;66485;52.128;4.436;2023-04-16T05:05:54;2.55;;;0.70;;
31920;SDS011;66485;52.128;4.436;2023-04-16T05:08:19;1.65;;;0.68;;
31920;SDS011;66485;52.128;4.436;2023-04-16T05:10:45;1.20;;;0.80;;
31920;SDS011;66485;52.128;4.436;2023-04-16T05:13:10;4.45;;;0.80;;
31920;SDS011;66485;52.128;4.436;2023-04-16T05:15:35;3.85;;;0.95;;
31920;SDS011;66485;52.128;4.436;2023-04-16T05:18:01;2.38;;;1.10;;
31920;SDS011;66485;52.128;4.436;2023-04-16T05:20:27;2.40;;;0.70;;
31920;SDS011;66485;52.128;4.436;2023-04-16T05:22:52;2.03;;;0.70;;
31920;SDS011;66485;52.128;4.436;2023-04-16T05:25:19;1.52;;;0.65;;
31920;SDS011;66485;52.128;4.436;2023-04-16T05:27:44;2.20;;;0.90;;
31920;SDS011;66485;52.128;4.436;2023-04-16T05:30:10;1.42;;;0.80;;
31920;SDS011;66485;52.128;4.436;2023-04-16T05:32:37;2.42;;;0.80;;
31920;SDS011;66485;52.128;4.436;2023-04-16T05:35:03;1.30;;;0.65;;
31920;SDS011;66485;52.128;4.436;2023-04-16T05:37:28;4.53;;;0.88;;
31920;SDS011;66485;52.128;4.436;2023-04-16T05:39:54;3.78;;;0.90;;
31920;SDS011;66485;52.128;4.436;2023-04-16T05:42:19;3.08;;;1.15;;
31920;SDS011;66485;52.128;4.436;2023-04-16T05:44:44;3.22;;;1.20;;
31920;SDS011;66485;52.128;4.436;2023-04-16T05:47:10;1.88;;;0.90;;
31920;SDS011;66485;52.128;4.436;2023-04-16T05:49:35;3.45;;;0.82;;
31920;SDS011;66485;52.128;4.436;2023-04-16T05:52:03;3.20;;;0.80;;
31920;SDS011;66485;52.128;4.436;2023-04-16T05:54:29;2.28;;;0.93;;
31920;SDS011;66485;52.128;4.436;2023-04-16T05:56:55;2.35;;;0.80;;
31920;SDS011;66485;52.128;4.436;2023-04-16T05:59:20;3.42;;;0.70;;
31920;SDS011;66485;52.128;4.436;2023-04-16T06:01:45;2.03;;;0.80;;
31920;SDS011;66485;52.128;4.436;2023-04-16T06:04:13;2.38;;;0.90;;
31920;SDS011;66485;52.128;4.436;2023-04-16T06:06:38;4.63;;;0.90;;
31920;SDS011;66485;52.128;4.436;2023-04-16T06:09:04;1.88;;;0.63;;
31920;SDS011;66485;52.128;4.436;2023-04-16T06:11:29;1.38;;;0.50;;
31920;SDS011;66485;52.128;4.436;2023-04-16T06:13:55;3.00;;;1.17;;
31920;SDS011;66485;52.128;4.436;2023-04-16T06:16:20;3.08;;;0.80;;
31920;SDS011;66485;52.128;4.436;2023-04-16T06:18:45;2.45;;;0.90;;
31920;SDS011;66485;52.128;4.436;2023-04-16T06:21:11;1.67;;;0.73;;
31920;SDS011;66485;52.128;4.436;2023-04-16T06:23:36;1.42;;;0.80;;
31920;SDS011;66485;52.128;4.436;2023-04-16T06:26:02;2.78;;;0.80;;
31920;SDS011;66485;52.128;4.436;2023-04-16T06:28:27;2.25;;;0.70;;
31920;SDS011;66485;52.128;4.436;2023-04-16T06:30:52;2.15;;;0.90;;
31920;SDS011;66485;52.128;4.436;2023-04-16T06:33:17;1.95;;;0.73;;
31920;SDS011;66485;52.128;4.436;2023-04-16T06:35:43;2.55;;;1.02;;
31920;SDS011;66485;52.128;4.436;2023-04-16T06:38:08;3.05;;;1.02;;
31920;SDS011;66485;52.128;4.436;2023-04-16T06:40:33;2.65;;;0.75;;
31920;SDS011;66485;52.128;4.436;2023-04-16T06:43:01;3.72;;;1.02;;
31920;SDS011;66485;52.128;4.436;2023-04-16T06:45:26;1.75;;;0.77;;
31920;SDS011;66485;52.128;4.436;2023-04-16T06:47:52;1.92;;;0.80;;
31920;SDS011;66485;52.128;4.436;2023-04-16T06:50:17;1.33;;;0.60;;
31920;SDS011;66485;52.128;4.436;2023-04-16T06:52:42;1.95;;;0.77;;
31920;SDS011;66485;52.128;4.436;2023-04-16T06:55:08;1.27;;;0.65;;
31920;SDS011;66485;52.128;4.436;2023-04-16T06:57:34;1.95;;;0.70;;
31920;SDS011;66485;52.128;4.436;2023-04-16T07:00:00;1.95;;;0.80;;
31920;SDS011;66485;52.128;4.436;2023-04-16T07:02:25;3.97;;;1.00;;
31920;SDS011;66485;52.128;4.436;2023-04-16T07:04:51;3.22;;;0.77;;
31920;SDS011;66485;52.128;4.436;2023-04-16T07:07:16;2.05;;;0.80;;
31920;SDS011;66485;52.128;4.436;2023-04-16T07:09:42;1.67;;;0.82;;
31920;SDS011;66485;52.128;4.436;2023-04-16T07:12:07;1.85;;;0.70;;
31920;SDS011;66485;52.128;4.436;2023-04-16T07:14:33;1.48;;;0.88;;
31920;SDS011;66485;52.128;4.436;2023-04-16T07:16:58;2.97;;;1.00;;
31920;SDS011;66485;52.128;4.436;2023-04-16T07:19:24;2.88;;;0.65;;
31920;SDS011;66485;52.128;4.436;2023-04-16T07:21:49;1.27;;;0.60;;
31920;SDS011;66485;52.128;4.436;2023-04-16T07:24:15;0.80;;;0.60;;
31920;SDS011;66485;52.128;4.436;2023-04-16T07:26:41;1.60;;;0.80;;
31920;SDS011;66485;52.128;4.436;2023-04-16T07:29:06;1.80;;;0.70;;
31920;SDS011;66485;52.128;4.436;2023-04-16T07:31:32;1.67;;;0.70;;
31920;SDS011;66485;52.128;4.436;2023-04-16T07:33:57;1.85;;;0.85;;
31920;SDS011;66485;52.128;4.436;2023-04-16T07:36:23;3.00;;;1.10;;
31920;SDS011;66485;52.128;4.436;2023-04-16T07:38:48;2.20;;;0.80;;
31920;SDS011;66485;52.128;4.436;2023-04-16T07:41:13;1.50;;;0.73;;
31920;SDS011;66485;52.128;4.436;2023-04-16T07:43:39;1.25;;;0.80;;
31920;SDS011;66485;52.128;4.436;2023-04-16T07:46:04;1.42;;;0.73;;
31920;SDS011;66485;52.128;4.436;2023-04-16T07:48:30;1.77;;;0.80;;
31920;SDS011;66485;52.128;4.436;2023-04-16T07:50:55;2.63;;;1.10;;
31920;SDS011;66485;52.128;4.436;2023-04-16T07:53:21;1.92;;;0.95;;
31920;SDS011;66485;52.128;4.436;2023-04-16T07:55:46;1.92;;;0.80;;
31920;SDS011;66485;52.128;4.436;2023-04-16T07:58:12;1.63;;;0.65;;
31920;SDS011;66485;52.128;4.436;2023-04-16T08:00:38;1.63;;;0.90;;
31920;SDS011;66485;52.128;4.436;2023-04-16T08:03:03;1.30;;;0.70;;
31920;SDS011;66485;52.128;4.436;2023-04-16T08:05:31;3.05;;;0.90;;
31920;SDS011;66485;52.128;4.436;2023-04-16T08:07:56;2.08;;;0.82;;
31920;SDS011;66485;52.128;4.436;2023-04-16T08:10:22;1.48;;;0.70;;
31920;SDS011;66485;52.128;4.436;2023-04-16T08:12:47;1.98;;;0.93;;
31920;SDS011;66485;52.128;4.436;2023-04-16T08:15:12;1.65;;;0.77;;
31920;SDS011;66485;52.128;4.436;2023-04-16T08:17:37;2.40;;;0.85;;
31920;SDS011;66485;52.128;4.436;2023-04-16T08:20:03;2.90;;;0.80;;
31920;SDS011;66485;52.128;4.436;2023-04-16T08:22:29;1.10;;;0.70;;
31920;SDS011;66485;52.128;4.436;2023-04-16T08:24:55;1.25;;;0.80;;
31920;SDS011;66485;52.128;4.436;2023-04-16T08:27:20;1.63;;;0.70;;
31920;SDS011;66485;52.128;4.436;2023-04-16T08:29:46;1.52;;;0.80;;
31920;SDS011;66485;52.128;4.436;2023-04-16T08:32:11;2.80;;;0.80;;
31920;SDS011;66485;52.128;4.436;2023-04-16T08:34:37;1.50;;;1.10;;
31920;SDS011;66485;52.128;4.436;2023-04-16T08:37:02;1.60;;;0.80;;
31920;SDS011;66485;52.128;4.436;2023-04-16T08:39:27;2.42;;;0.90;;
31920;SDS011;66485;52.128;4.436;2023-04-16T08:41:53;3.67;;;1.52;;
31920;SDS011;66485;52.128;4.436;2023-04-16T08:44:20;2.03;;;0.80;;
31920;SDS011;66485;52.128;4.436;2023-04-16T08:46:53;3.17;;;1.25;;
31920;SDS011;66485;52.128;4.436;2023-04-16T08:49:23;1.35;;;0.82;;
31920;SDS011;66485;52.128;4.436;2023-04-16T08:51:49;2.67;;;0.93;;
31920;SDS011;66485;52.128;4.436;2023-04-16T08:54:19;1.45;;;0.70;;
31920;SDS011;66485;52.128;4.436;2023-04-16T08:57:06;2.75;;;0.80;;
31920;SDS011;66485;52.128;4.436;2023-04-16T08:59:35;3.03;;;1.17;;
31920;SDS011;66485;52.128;4.436;2023-04-16T09:02:02;0.93;;;0.77;;
31920;SDS011;66485;52.128;4.436;2023-04-16T09:04:30;1.95;;;0.90;;
31920;SDS011;66485;52.128;4.436;2023-04-16T09:06:57;1.50;;;0.70;;
31920;SDS011;66485;52.128;4.436;2023-04-16T09:09:22;1.85;;;0.90;;
31920;SDS011;66485;52.128;4.436;2023-04-16T09:11:50;1.52;;;0.90;;
31920;SDS011;66485;52.128;4.436;2023-04-16T09:14:16;1.92;;;0.70;;
31920;SDS011;66485;52.128;4.436;2023-04-16T09:16:42;1.25;;;0.82;;
31920;SDS011;66485;52.128;4.436;2023-04-16T09:19:10;2.13;;;0.90;;
31920;SDS011;66485;52.128;4.436;2023-04-16T09:21:35;2.33;;;0.88;;
31920;SDS011;66485;52.128;4.436;2023-04-16T09:24:01;2.05;;;0.90;;
31920;SDS011;66485;52.128;4.436;2023-04-16T09:26:27;1.95;;;1.00;;
31920;SDS011;66485;52.128;4.436;2023-04-16T09:28:53;1.10;;;0.80;;
31920;SDS011;66485;52.128;4.436;2023-04-16T09:31:19;2.35;;;0.80;;
31920;SDS011;66485;52.128;4.436;2023-04-16T09:36:24;2.08;;;0.90;;
31920;SDS011;66485;52.128;4.436;2023-04-16T09:38:51;2.17;;;1.10;;
31920;SDS011;66485;52.128;4.436;2023-04-16T09:41:17;2.58;;;1.13;;
31920;SDS011;66485;52.128;4.436;2023-04-16T09:46:20;3.17;;;1.00;;
31920;SDS011;66485;52.128;4.436;2023-04-16T09:48:45;2.15;;;1.00;;
31920;SDS011;66485;52.128;4.436;2023-04-16T09:51:11;1.67;;;0.95;;
31920;SDS011;66485;52.128;4.436;2023-04-16T09:53:36;1.67;;;0.90;;
31920;SDS011;66485;52.128;4.436;2023-04-16T09:56:03;1.55;;;0.80;;
31920;SDS011;66485;52.128;4.436;2023-04-16T09:58:30;1.23;;;0.70;;
31920;SDS011;66485;52.128;4.436;2023-04-16T10:01:02;2.53;;;0.93;;
31920;SDS011;66485;52.128;4.436;2023-04-16T10:03:29;2.08;;;0.90;;
31920;SDS011;66485;52.128;4.436;2023-04-16T10:05:59;1.67;;;0.80;;
31920;SDS011;66485;52.128;4.436;2023-04-16T10:08:45;2.20;;;1.00;;
31920;SDS011;66485;52.128;4.436;2023-04-16T10:11:12;1.55;;;0.77;;
31920;SDS011;66485;52.128;4.436;2023-04-16T10:13:37;1.25;;;0.80;;
31920;SDS011;66485;52.128;4.436;2023-04-16T10:16:03;2.33;;;0.90;;
31920;SDS011;66485;52.128;4.436;2023-04-16T10:18:28;1.65;;;0.80;;
31920;SDS011;66485;52.128;4.436;2023-04-16T10:20:56;3.35;;;1.23;;
31920;SDS011;66485;52.128;4.436;2023-04-16T10:23:22;3.20;;;1.00;;
31920;SDS011;66485;52.128;4.436;2023-04-16T10:25:50;2.22;;;0.90;;
31920;SDS011;66485;52.128;4.436;2023-04-16T10:28:18;1.83;;;0.88;;
31920;SDS011;66485;52.128;4.436;2023-04-16T10:30:44;2.42;;;0.95;;
31920;SDS011;66485;52.128;4.436;2023-04-16T10:33:18;1.10;;;0.80;;
31920;SDS011;66485;52.128;4.436;2023-04-16T10:35:45;3.22;;;0.88;;
31920;SDS011;66485;52.128;4.436;2023-04-16T10:38:28;2.33;;;1.30;;
31920;SDS011;66485;52.128;4.436;2023-04-16T10:40:57;3.15;;;1.10;;
31920;SDS011;66485;52.128;4.436;2023-04-16T10:43:23;1.75;;;0.90;;
31920;SDS011;66485;52.128;4.436;2023-04-16T10:45:49;1.30;;;0.80;;
31920;SDS011;66485;52.128;4.436;2023-04-16T10:48:17;2.42;;;0.90;;
31920;SDS011;66485;52.128;4.436;2023-04-16T10:50:42;2.65;;;1.10;;
31920;SDS011;66485;52.128;4.436;2023-04-16T10:53:19;2.60;;;1.05;;
31920;SDS011;66485;52.128;4.436;2023-04-16T10:55:56;2.28;;;1.10;;
31920;SDS011;66485;52.128;4.436;2023-04-16T10:58:28;1.70;;;0.80;;
31920;SDS011;66485;52.128;4.436;2023-04-16T11:00:54;3.28;;;1.00;;
31920;SDS011;66485;52.128;4.436;2023-04-16T11:03:22;2.58;;;0.95;;
31920;SDS011;66485;52.128;4.436;2023-04-16T11:05:50;2.47;;;0.95;;
31920;SDS011;66485;52.128;4.436;2023-04-16T11:08:15;1.38;;;0.90;;
31920;SDS011;66485;52.128;4.436;2023-04-16T11:10:41;1.73;;;0.90;;
31920;SDS011;66485;52.128;4.436;2023-04-16T11:13:06;2.42;;;1.10;;
31920;SDS011;66485;52.128;4.436;2023-04-16T11:15:33;4.38;;;1.10;;
31920;SDS011;66485;52.128;4.436;2023-04-16T11:17:58;2.15;;;0.80;;
31920;SDS011;66485;52.128;4.436;2023-04-16T11:20:24;2.80;;;1.10;;
31920;SDS011;66485;52.128;4.436;2023-04-16T11:22:51;1.85;;;1.02;;
31920;SDS011;66485;52.128;4.436;2023-04-16T11:25:22;2.97;;;0.95;;
31920;SDS011;66485;52.128;4.436;2023-04-16T11:27:49;1.58;;;0.95;;
31920;SDS011;66485;52.128;4.436;2023-04-16T11:30:15;1.70;;;0.90;;
31920;SDS011;66485;52.128;4.436;2023-04-16T11:32:41;2.30;;;0.98;;
31920;SDS011;66485;52.128;4.436;2023-04-16T11:35:17;2.10;;;0.93;;
31920;SDS011;66485;52.128;4.436;2023-04-16T11:37:43;2.30;;;1.17;;
31920;SDS011;66485;52.128;4.436;2023-04-16T11:40:09;2.47;;;1.17;;
31920;SDS011;66485;52.128;4.436;2023-04-16T11:42:39;2.83;;;1.17;;
31920;SDS011;66485;52.128;4.436;2023-04-16T11:45:05;1.98;;;1.00;;
31920;SDS011;66485;52.128;4.436;2023-04-16T11:47:45;2.55;;;0.88;;
31920;SDS011;66485;52.128;4.436;2023-04-16T11:50:15;3.08;;;1.15;;
31920;SDS011;66485;52.128;4.436;2023-04-16T11:52:41;1.70;;;0.95;;
31920;SDS011;66485;52.128;4.436;2023-04-16T11:55:07;2.00;;;1.15;;
31920;SDS011;66485;52.128;4.436;2023-04-16T11:57:32;2.78;;;1.10;;
31920;SDS011;66485;52.128;4.436;2023-04-16T11:59:58;1.80;;;1.02;;
31920;SDS011;66485;52.128;4.436;2023-04-16T12:05:04;4.03;;;1.13;;
31920;SDS011;66485;52.128;4.436;2023-04-16T12:07:30;2.40;;;0.93;;
31920;SDS011;66485;52.128;4.436;2023-04-16T12:10:05;3.03;;;1.30;;
31920;SDS011;66485;52.128;4.436;2023-04-16T12:12:34;2.40;;;1.00;;
31920;SDS011;66485;52.128;4.436;2023-04-16T12:15:00;1.38;;;0.90;;
31920;SDS011;66485;52.128;4.436;2023-04-16T12:17:30;1.38;;;1.00;;
31920;SDS011;66485;52.128;4.436;2023-04-16T12:19:57;4.57;;;1.15;;
31920;SDS011;66485;52.128;4.436;2023-04-16T12:22:30;2.05;;;0.90;;
31920;SDS011;66485;52.128;4.436;2023-04-16T12:24:59;3.92;;;1.45;;
31920;SDS011;66485;52.128;4.436;2023-04-16T12:30:17;3.38;;;1.20;;
31920;SDS011;66485;52.128;4.436;2023-04-16T12:32:45;2.95;;;1.20;;
31920;SDS011;66485;52.128;4.436;2023-04-16T12:35:12;3.08;;;1.15;;
31920;SDS011;66485;52.128;4.436;2023-04-16T12:37:37;2.78;;;1.25;;
31920;SDS011;66485;52.128;4.436;2023-04-16T12:40:04;3.13;;;1.20;;
31920;SDS011;66485;52.128;4.436;2023-04-16T12:42:30;3.72;;;1.13;;
31920;SDS011;66485;52.128;4.436;2023-04-16T12:45:00;2.85;;;1.25;;
31920;SDS011;66485;52.128;4.436;2023-04-16T12:47:27;2.08;;;1.23;;
31920;SDS011;66485;52.128;4.436;2023-04-16T12:49:52;2.90;;;0.98;;
31920;SDS011;66485;52.128;4.436;2023-04-16T12:52:17;2.65;;;1.40;;
31920;SDS011;66485;52.128;4.436;2023-04-16T12:54:43;1.67;;;1.00;;
31920;SDS011;66485;52.128;4.436;2023-04-16T12:57:08;2.17;;;1.00;;
31920;SDS011;66485;52.128;4.436;2023-04-16T12:59:33;2.00;;;1.02;;
31920;SDS011;66485;52.128;4.436;2023-04-16T13:01:59;4.40;;;1.20;;
31920;SDS011;66485;52.128;4.436;2023-04-16T13:04:26;1.92;;;1.15;;
31920;SDS011;66485;52.128;4.436;2023-04-16T13:06:51;2.45;;;1.13;;
31920;SDS011;66485;52.128;4.436;2023-04-16T13:09:16;4.10;;;1.30;;
31920;SDS011;66485;52.128;4.436;2023-04-16T13:11:44;2.00;;;1.10;;
31920;SDS011;66485;52.128;4.436;2023-04-16T13:14:09;4.22;;;1.30;;
31920;SDS011;66485;52.128;4.436;2023-04-16T13:16:34;3.30;;;1.17;;
31920;SDS011;66485;52.128;4.436;2023-04-16T13:19:02;4.35;;;1.77;;
31920;SDS011;66485;52.128;4.436;2023-04-16T13:21:27;3.33;;;1.35;;
31920;SDS011;66485;52.128;4.436;2023-04-16T13:23:53;2.65;;;1.20;;
31920;SDS011;66485;52.128;4.436;2023-04-16T13:26:18;3.58;;;1.50;;
31920;SDS011;66485;52.128;4.436;2023-04-16T13:28:43;3.30;;;1.45;;
31920;SDS011;66485;52.128;4.436;2023-04-16T13:31:09;1.80;;;0.88;;
31920;SDS011;66485;52.128;4.436;2023-04-16T13:33:34;2.95;;;1.00;;
31920;SDS011;66485;52.128;4.436;2023-04-16T13:35:59;2.83;;;1.30;;
31920;SDS011;66485;52.128;4.436;2023-04-16T13:38:25;2.97;;;1.33;;
31920;SDS011;66485;52.128;4.436;2023-04-16T13:40:50;2.05;;;1.17;;
31920;SDS011;66485;52.128;4.436;2023-04-16T13:43:15;3.50;;;1.40;;
31920;SDS011;66485;52.128;4.436;2023-04-16T13:45:42;3.47;;;1.45;;
31920;SDS011;66485;52.128;4.436;2023-04-16T13:48:08;2.70;;;1.30;;
31920;SDS011;66485;52.128;4.436;2023-04-16T13:50:33;3.22;;;1.30;;
31920;SDS011;66485;52.128;4.436;2023-04-16T13:52:59;4.05;;;1.50;;
31920;SDS011;66485;52.128;4.436;2023-04-16T13:55:25;5.30;;;1.60;;
31920;SDS011;66485;52.128;4.436;2023-04-16T13:57:50;4.38;;;1.35;;
31920;SDS011;66485;52.128;4.436;2023-04-16T14:00:17;2.08;;;1.20;;
31920;SDS011;66485;52.128;4.436;2023-04-16T14:02:43;2.35;;;1.42;;
31920;SDS011;66485;52.128;4.436;2023-04-16T14:05:10;2.13;;;1.10;;
31920;SDS011;66485;52.128;4.436;2023-04-16T14:07:36;2.88;;;1.40;;
31920;SDS011;66485;52.128;4.436;2023-04-16T14:10:01;2.47;;;1.40;;
31920;SDS011;66485;52.128;4.436;2023-04-16T14:12:27;3.53;;;1.38;;
31920;SDS011;66485;52.128;4.436;2023-04-16T14:14:52;4.03;;;1.48;;
31920;SDS011;66485;52.128;4.436;2023-04-16T14:17:17;2.50;;;1.40;;
31920;SDS011;66485;52.128;4.436;2023-04-16T14:19:42;3.38;;;1.58;;
31920;SDS011;66485;52.128;4.436;2023-04-16T14:22:08;4.07;;;1.65;;
31920;SDS011;66485;52.128;4.436;2023-04-16T14:24:33;3.53;;;1.48;;
31920;SDS011;66485;52.128;4.436;2023-04-16T14:26:58;3.45;;;1.83;;
31920;SDS011;66485;52.128;4.436;2023-04-16T14:29:24;3.55;;;1.73;;
31920;SDS011;66485;52.128;4.436;2023-04-16T14:31:49;3.30;;;1.75;;
31920;SDS011;66485;52.128;4.436;2023-04-16T14:34:15;4.00;;;1.60;;
31920;SDS011;66485;52.128;4.436;2023-04-16T14:36:40;2.85;;;1.63;;
31920;SDS011;66485;52.128;4.436;2023-04-16T14:39:06;4.70;;;1.65;;
31920;SDS011;66485;52.128;4.436;2023-04-16T14:41:31;2.70;;;1.50;;
31920;SDS011;66485;52.128;4.436;2023-04-16T14:43:57;2.80;;;1.30;;
31920;SDS011;66485;52.128;4.436;2023-04-16T14:46:23;2.90;;;1.48;;
31920;SDS011;66485;52.128;4.436;2023-04-16T14:48:49;3.92;;;1.60;;
31920;SDS011;66485;52.128;4.436;2023-04-16T14:51:14;2.67;;;1.45;;
31920;SDS011;66485;52.128;4.436;2023-04-16T14:53:40;3.83;;;1.48;;